KCSV/CSV METAR and TAF weather

Enter ICAO airport designator
Station Type Date Time Source
KCSV METAR 2021/09/23 22:53 UTC NOAA

KCSV 232253Z AUTO 29006KT 10SM CLR 16/06 A3007 RMK AO2 SLP177 T01560061


Station Type Date Time Source
KCSV Decoded METAR 2021/09/23 22:53 UTC NOAA

CROSSVILLE MEMORIAL AIRPORT , TN, United States (KCSV) 35-57N 85-05W 570M
Sep 23, 2021 - 06:53 PM EDT / 2021.09.23 2253 UTC
Wind: from the WNW (290 degrees) at 7 MPH (6 KT):0
Visibility: 10 mile(s):0
Sky conditions: clear
Temperature: 60.1 F (15.6 C)
Dew Point: 43.0 F (6.1 C)
Relative Humidity: 53%
Pressure (altimeter): 30.07 in. Hg (1018 hPa)
ob: KCSV 232253Z AUTO 29006KT 10SM CLR 16/06 A3007 RMK AO2 SLP177 T01560061
cycle: 23

Station Type Date Time Source
KCSV TAF 2021/09/23 18:36 UTC NOAA

TAF KCSV 231733Z 2318/2418 31009G16KT P6SM SKC
FM240000 00000KT P6SM SKC
FM240500 00000KT 4SM BR BCFG SKC
FM241300 01002KT P6SM SKC

Example: see airport list